Verbank, NY

11:50 AM EST on March 05, 2015 (GMT -0500)
cawley aviation@sky acres airport | Change Station
CLOSE
Current Station
Personal Weather Station
Location: LaGrangeville, NY
Elevation: 650 ft
Nearby Weather Stations
Active Advisory: Special Statement Active Notice: Public Information Statement

Elev 650 ft 41.71 °N, 73.74 °W | Updated 15 minutes ago

Snow
Snow
22.6 °F
Feels Like 15 °F
N
6.0
Wind Variable Wind from NE
Gusts 13.0 mph

Today
High -- | Low -- °F
--% Chance of Precip.
Yesterday
High -- | Low -- °F
Precip. -- in
6:23 AM 5:49 PM
Full, 100% visible
Pressure 30.12 in
Visibility 10.0 miles
Clouds Overcast 7000 ft
Windchill 15 °F
Dew Point 6 °F
Humidity 49%
Rainfall in
Snow Depth Not available.
UV 2 out of 12
Pollen .50 out of 12
Air Quality Not available.
Flu Activity Not available.
METAR KPOU 051553Z 36007KT 10SM OVC070 M03/M14 A3012 RMK AO2 SLP199 T10331144

More Conditions Fewer Conditions

Pressure 30.12 in
Visibility 10.0 miles
Clouds Overcast 7000 ft
Windchill 15 °F
Dew Point 6 °F
Humidity 49%
Rainfall in
Snow Depth Not available.
UV 2 out of 12
Pollen .50 out of 12
Air Quality Not available.
Flu Activity Not available.
METAR KPOU 051553Z 36007KT 10SM OVC070 M03/M14 A3012 RMK AO2 SLP199 T10331144

More Conditions Fewer Conditions

10-Day Weather Forecast

Almanac

Astronomy

Mar. 05, 2015 Rise Set
Actual Time
Civil Twilight
Nautical Twilight
Astronomical Twilight
Moon
Length of Visible Light
Length of Day
Tomorrow will be .
, % of the Moon is Illuminated

Today's Extremes

State Highs State Lows

Community

WunderPhotos

Upload Photos

1,802,851 photos uploaded!

WunderBlogs® & News

Nearby

Air Quality

  Air Quality AQ Index Pollutant
Not available.

Snow Depth

Station Depth Elevation

Earthquake Activity

City Distance Mag. Time & Date
Minimum magnitude displayed is 2.5.

Coastal Water Temperatures

Place Temperature

Nearby Weather Stations

Special Statement
Statement as of 9:10 AM EST on March 05, 2015

... Areas of black ice into the early afternoon...

Light snow will continue to fall across eastern Ulster... Dutchess
and Litchfield counties into the early afternoon hours. In
addition to light snow... roadways remain wet from earlier
precipitation and melting yesterday from above freezing
temperatures.

As temperatures fall throughout the morning and into the early
afternoon hours... areas of black ice will be possible on untreated
roadways and surfaces resulting in hazardous travel conditions.
Motorists are urged to take caution if traveling.


Irl